Time;durP1;ratioP1;P1;durP2;ratioP2;P2;SDS_P1;SDS_P2;PMS_P1;PMS_P2;Temp;Humidity;BMP_temperature;BMP_pressure;BME280_temperature;BME280_humidity;BME280_pressure;Samples;Min_cycle;Max_cycle;Signal;HPM_P1;HPM_P2
2024/02/27 00:00:04;;;;;;;21.80;14.40;;;;;;;13.23;39.39;100214.33;107629;1257;69183;-64
2024/02/27 00:03:22;;;;;;;23.10;14.40;;;;;;;13.21;39.24;100207.38;107755;1257;72054;-64
2024/02/27 00:06:43;;;;;;;24.00;15.00;;;;;;;13.20;39.24;100207.45;107686;1257;60592;-65
2024/02/27 00:10:01;;;;;;;23.40;15.60;;;;;;;13.14;39.25;100212.63;107417;1257;60149;-64
2024/02/27 00:13:21;;;;;;;23.50;15.00;;;;;;;13.08;39.54;100211.86;107566;1257;73639;-65
2024/02/27 00:16:39;;;;;;;21.40;14.10;;;;;;;13.03;39.44;100213.81;107444;1257;69291;-64
2024/02/27 00:19:58;;;;;;;20.90;14.80;;;;;;;13.01;39.48;100214.28;108305;1253;72344;-64
2024/02/27 00:23:18;;;;;;;24.60;14.70;;;;;;;12.82;39.86;100214.71;108278;1254;60630;-63
2024/02/27 00:26:37;;;;;;;22.10;15.10;;;;;;;12.76;39.98;100222.90;107961;1253;59932;-63
2024/02/27 00:29:55;;;;;;;23.00;14.30;;;;;;;12.68;39.92;100220.59;108061;1254;73803;-63
2024/02/27 00:33:14;;;;;;;22.90;14.90;;;;;;;12.63;39.98;100222.75;108058;1253;69172;-65
2024/02/27 00:36:32;;;;;;;20.70;15.20;;;;;;;13.21;39.11;100211.08;108060;1254;72468;-64
2024/02/27 00:39:51;;;;;;;25.30;15.30;;;;;;;13.15;39.06;100210.27;108026;1256;60618;-64
2024/02/27 00:43:11;;;;;;;27.10;16.30;;;;;;;13.18;38.86;100204.50;108107;1253;58591;-64
2024/02/27 00:46:30;;;;;;;28.70;17.40;;;;;;;13.18;38.55;100206.11;107873;1253;74059;-64
2024/02/27 00:49:48;;;;;;;32.40;17.20;;;;;;;12.92;38.83;100206.02;108071;1253;69013;-64
2024/02/27 00:53:07;;;;;;;33.70;18.20;;;;;;;12.76;39.15;100205.67;108300;1257;73238;-64
2024/02/27 00:56:25;;;;;;;35.60;17.80;;;;;;;12.63;39.15;100207.10;108134;1253;60679;-64
2024/02/27 00:59:42;;;;;;;26.80;16.30;;;;;;;12.46;39.40;100202.53;108384;1254;59744;-64
2024/02/27 01:02:54;;;;;;;30.60;17.80;;;;;;;12.50;39.33;100203.42;107979;1255;72749;-65
2024/02/27 01:06:14;;;;;;;29.10;16.50;;;;;;;12.46;39.23;100203.56;108048;1253;68749;-65
2024/02/27 01:09:33;;;;;;;27.30;17.90;;;;;;;12.36;39.43;100199.26;108328;1253;72529;-64
2024/02/27 01:12:51;;;;;;;26.60;16.90;;;;;;;12.27;39.31;100192.20;108049;1255;60558;-64
2024/02/27 01:16:09;;;;;;;28.20;16.10;;;;;;;12.27;39.54;100192.23;107975;1253;59848;-64
2024/02/27 01:19:29;;;;;;;29.40;17.00;;;;;;;12.21;39.49;100190.19;108059;1253;73678;-64
2024/02/27 01:22:47;;;;;;;29.00;17.80;;;;;;;12.12;39.57;100186.70;108025;1253;69662;-65
2024/02/27 01:26:06;;;;;;;36.70;18.00;;;;;;;12.10;39.75;100187.48;108066;1253;72518;-64
2024/02/27 01:29:24;;;;;;;29.00;18.10;;;;;;;12.04;39.67;100188.60;108320;1253;60986;-64
2024/02/27 01:31:59;;;;;;;34.20;18.60;;;;;;;12.02;39.66;100190.80;108048;1253;58962;-64
2024/02/27 01:35:11;;;;;;;27.30;17.20;;;;;;;11.98;39.68;100191.80;107980;1253;73691;-65
2024/02/27 01:38:31;;;;;;;34.60;18.30;;;;;;;11.93;39.74;100194.13;108097;1254;68338;-65
2024/02/27 01:41:56;;;;;;;29.60;17.70;;;;;;;11.94;39.70;100199.71;108295;1253;72476;-64
2024/02/27 01:45:23;;;;;;;26.10;17.00;;;;;;;11.85;39.74;100202.14;108047;1254;61031;-64
2024/02/27 01:48:35;;;;;;;28.10;17.20;;;;;;;11.84;39.59;100198.13;108023;1253;59826;-65
2024/02/27 01:51:54;;;;;;;26.20;15.90;;;;;;;11.78;39.78;100200.11;108096;1253;73670;-65
2024/02/27 01:55:12;;;;;;;25.20;15.70;;;;;;;11.78;39.72;100197.15;107983;1253;69565;-65
2024/02/27 01:57:59;;;;;;;28.20;15.70;;;;;;;11.76;39.63;100197.23;108012;1253;72613;-65
2024/02/27 02:00:31;;;;;;;22.90;15.40;;;;;;;11.74;39.68;100199.39;108303;1253;60676;-66
2024/02/27 02:03:44;;;;;;;25.70;15.50;;;;;;;11.83;39.45;100201.36;108071;1253;60012;-65
2024/02/27 02:07:03;;;;;;;23.40;16.30;;;;;;;11.83;39.43;100201.33;107970;1253;73553;-63
2024/02/27 02:10:22;;;;;;;26.00;16.70;;;;;;;11.80;39.45;100206.57;108010;1253;69362;-63
2024/02/27 02:13:41;;;;;;;31.60;18.30;;;;;;;11.73;39.65;100208.41;107948;1254;72457;-63
2024/02/27 02:17:01;;;;;;;38.10;20.50;;;;;;;11.69;39.83;100209.93;108312;1253;60599;-63
2024/02/27 02:20:20;;;;;;;32.50;19.90;;;;;;;11.59;39.95;100212.08;107970;1253;60406;-64
2024/02/27 02:23:34;;;;;;;30.90;19.90;;;;;;;11.60;39.95;100210.12;108007;1253;74143;-64
2024/02/27 02:26:53;;;;;;;40.10;21.00;;;;;;;11.75;39.98;100207.96;108120;1253;69222;-64
2024/02/27 02:30:14;;;;;;;35.60;19.30;;;;;;;11.63;40.09;100209.48;107920;1253;73346;-66
2024/02/27 02:33:33;;;;;;;33.60;19.00;;;;;;;11.60;40.25;100207.48;108102;1254;60717;-64
2024/02/27 02:36:52;;;;;;;31.30;18.50;;;;;;;11.59;40.24;100205.95;107930;1253;59705;-65
2024/02/27 02:40:14;;;;;;;30.20;18.70;;;;;;;11.60;40.20;100206.61;108274;1255;73611;-64
2024/02/27 02:42:49;;;;;;;29.00;18.00;;;;;;;11.56;40.23;100204.83;107777;1253;70048;-65
2024/02/27 02:45:41;;;;;;;;;;;;;;;11.54;40.33;100205.94;108039;1253;72351;-64
2024/02/27 02:49:22;;;;;;;34.50;17.60;;;;;;;11.50;40.38;100202.23;108011;1254;61305;-64
2024/02/27 02:52:41;;;;;;;26.90;16.70;;;;;;;11.42;40.29;100199.39;108032;1256;59958;-64
2024/02/27 02:55:59;;;;;;;27.00;17.30;;;;;;;11.41;40.49;100211.38;108070;1253;73535;-66
2024/02/27 02:59:17;;;;;;;27.20;16.40;;;;;;;11.43;40.43;100211.99;108069;1256;69548;-65
2024/02/27 03:02:35;;;;;;;26.00;16.80;;;;;;;11.46;40.52;100211.16;107972;1254;72462;-65
2024/02/27 03:05:54;;;;;;;24.10;16.00;;;;;;;11.43;40.36;100211.10;108005;1254;60988;-66
2024/02/27 03:09:14;;;;;;;24.10;15.60;;;;;;;11.43;40.53;100220.06;108067;1253;59770;-65
2024/02/27 03:12:34;;;;;;;30.00;16.00;;;;;;;11.44;40.48;100224.05;107728;1253;72686;-66
2024/02/27 03:15:25;;;;;;;25.60;16.40;;;;;;;11.33;40.60;100225.01;107873;1253;70144;-66
2024/02/27 03:18:36;;;;;;;25.10;16.40;;;;;;;11.32;40.51;100227.67;108255;1253;72546;-66
2024/02/27 03:21:55;;;;;;;25.20;16.50;;;;;;;11.32;40.48;100225.20;107971;1256;60573;-66
2024/02/27 03:25:15;;;;;;;22.50;15.20;;;;;;;11.34;40.38;100227.40;108207;1253;60093;-65
2024/02/27 03:28:29;;;;;;;26.90;15.50;;;;;;;11.35;40.63;100225.98;107759;1253;76786;-66
2024/02/27 03:31:00;;;;;;;;;;;;;;;11.36;40.34;100227.88;108040;1253;70403;-65
2024/02/27 03:34:12;;;;;;;26.00;14.90;;;;;;;11.31;40.29;100231.20;108325;1253;71643;-65
2024/02/27 03:37:30;;;;;;;30.20;16.40;;;;;;;11.29;40.34;100237.61;108037;1254;61084;-65
2024/02/27 03:40:23;;;;;;;22.60;15.00;;;;;;;11.36;40.31;100239.48;108036;1253;59448;-66
2024/02/27 03:42:51;;;;;;;26.60;15.80;;;;;;;11.33;40.20;100239.02;108122;1253;73702;-66
2024/02/27 03:45:44;;;;;;;;;;;;;;;11.37;40.09;100240.30;108039;1253;69169;-65
2024/02/27 03:49:02;;;;;;;29.00;16.80;;;;;;;11.31;40.04;100240.15;108014;1253;72459;-65
2024/02/27 03:52:21;;;;;;;29.80;17.10;;;;;;;11.22;40.11;100239.60;108337;1253;60616;-67
2024/02/27 03:55:40;;;;;;;26.20;15.60;;;;;;;11.07;40.27;100238.38;107991;1252;59667;-66
2024/02/27 03:58:59;;;;;;;26.80;16.50;;;;;;;11.04;40.17;100240.95;108098;1253;73039;-67
2024/02/27 04:02:17;;;;;;;28.50;14.40;;;;;;;11.01;40.39;100241.23;108059;1253;70745;-67
2024/02/27 04:05:25;;;;;;;25.90;15.70;;;;;;;10.98;40.37;100240.28;108003;1258;71447;-66
2024/02/27 04:08:36;;;;;;;21.10;14.20;;;;;;;10.99;40.39;100241.47;108220;1253;61062;-66
2024/02/27 04:11:54;;;;;;;23.30;15.10;;;;;;;10.97;40.22;100243.64;107985;1258;60670;-65
2024/02/27 04:15:13;;;;;;;20.70;14.00;;;;;;;11.00;40.35;100248.48;108005;1253;72810;-65
2024/02/27 04:18:32;;;;;;;27.60;16.30;;;;;;;10.91;40.67;100250.86;108036;1258;70366;-67
2024/02/27 04:21:52;;;;;;;23.00;14.70;;;;;;;10.91;40.65;100251.39;108104;1254;71479;-66
2024/02/27 04:25:10;;;;;;;25.60;15.70;;;;;;;10.88;40.63;100251.30;107736;1253;61110;-66
2024/02/27 04:28:28;;;;;;;23.30;13.80;;;;;;;10.88;40.46;100252.20;108017;1253;60342;-66
2024/02/27 04:31:47;;;;;;;25.00;14.90;;;;;;;10.91;40.42;100256.30;108268;1253;73014;-65
2024/02/27 04:34:22;;;;;;;21.40;13.80;;;;;;;10.95;40.42;100258.10;107994;1253;69615;-65
2024/02/27 04:37:34;;;;;;;22.80;14.70;;;;;;;10.97;40.44;100253.46;108293;1253;71336;-65
2024/02/27 04:40:53;;;;;;;23.80;13.10;;;;;;;10.91;40.75;100253.50;108294;1253;61002;-64
2024/02/27 04:44:11;;;;;;;24.30;12.50;;;;;;;10.89;40.82;100254.42;107774;1254;59848;-64
2024/02/27 04:47:30;;;;;;;26.40;12.40;;;;;;;10.90;40.75;100252.30;107989;1254;72977;-64
2024/02/27 04:50:50;;;;;;;21.70;12.80;;;;;;;10.95;40.71;100264.09;108000;1253;69303;-64
2024/02/27 04:54:08;;;;;;;19.10;13.50;;;;;;;10.96;40.61;100266.84;107960;1253;73093;-64
2024/02/27 04:56:52;;;;;;;22.50;13.80;;;;;;;10.99;40.77;100271.30;108041;1253;60608;-64
2024/02/27 05:00:04;;;;;;;21.90;14.30;;;;;;;10.99;40.80;100274.81;108030;1253;59677;-65
2024/02/27 05:03:23;;;;;;;23.50;13.30;;;;;;;10.96;40.66;100277.36;108085;1253;74641;-65
2024/02/27 05:06:42;;;;;;;23.20;14.30;;;;;;;11.07;40.64;100276.09;108020;1253;69168;-65
2024/02/27 05:10:00;;;;;;;19.90;13.30;;;;;;;11.05;40.50;100276.52;108023;1253;71303;-65
2024/02/27 05:13:19;;;;;;;22.60;14.00;;;;;;;11.09;40.71;100281.83;108349;1258;60012;-64
2024/02/27 05:16:41;;;;;;;21.90;13.80;;;;;;;11.05;40.80;100287.93;107976;1253;59342;-65
2024/02/27 05:19:58;;;;;;;26.80;14.30;;;;;;;11.03;40.82;100292.73;107951;1253;73081;-65
2024/02/27 05:23:17;;;;;;;22.60;14.70;;;;;;;11.01;40.90;100294.18;108104;1253;69208;-66
2024/02/27 05:26:36;;;;;;;20.90;13.20;;;;;;;11.00;41.17;100297.77;108328;1253;72364;-66
2024/02/27 05:29:34;;;;;;;23.70;13.70;;;;;;;11.02;41.18;100302.95;108229;1254;60708;-65
2024/02/27 05:32:46;;;;;;;25.50;14.90;;;;;;;11.02;41.15;100306.11;108064;1253;59679;-66
2024/02/27 05:35:24;;;;;;;26.70;13.50;;;;;;;11.01;41.14;100315.77;107991;1253;74473;-66
2024/02/27 05:38:37;;;;;;;24.60;14.40;;;;;;;10.98;41.36;100318.01;107959;1253;69499;-66
2024/02/27 05:41:59;;;;;;;21.10;13.30;;;;;;;10.97;41.19;100324.52;107823;1253;72293;-67
2024/02/27 05:44:38;;;;;;;23.20;13.60;;;;;;;11.00;41.32;100324.25;108037;1253;60368;-67
2024/02/27 05:47:51;;;;;;;22.40;13.50;;;;;;;11.04;41.46;100326.89;108085;1258;59106;-66
2024/02/27 05:50:31;;;;;;;24.20;13.80;;;;;;;11.15;41.45;100331.98;108009;1253;74096;-67
2024/02/27 06:00:00;;;;;;;20.40;14.30;;;;;;;11.39;41.29;100335.89;101328;1305;616534;-67
2024/02/27 06:03:42;;;;;;;20.00;13.90;;;;;;;11.42;41.49;100338.39;105701;1257;61623;-65
2024/02/27 06:07:38;;;;;;;23.30;13.30;;;;;;;11.41;41.37;100340.02;105234;1261;60049;-64
2024/02/27 06:10:51;;;;;;;20.50;13.70;;;;;;;11.47;41.30;100346.66;104766;1257;72685;-66
2024/02/27 06:13:32;;;;;;;;;;;;;;;11.45;41.37;100344.27;105659;1254;803587;-68
2024/02/27 06:15:59;;;;;;;20.30;12.50;;;;;;;11.45;41.30;100349.16;106539;1254;73122;-67
2024/02/27 06:19:12;;;;;;;23.60;14.10;;;;;;;11.46;41.23;100348.43;105457;1257;60828;-66
2024/02/27 06:22:38;;;;;;;24.20;14.30;;;;;;;11.47;41.09;100346.28;104853;1257;61632;-65
2024/02/27 06:25:23;;;;;;;21.80;13.50;;;;;;;11.47;41.31;100348.58;105112;1257;72488;-65
2024/02/27 06:28:06;;;;;;;24.00;15.40;;;;;;;11.50;41.47;100350.61;105575;1255;69917;-66
2024/02/27 06:31:18;;;;;;;23.10;14.00;;;;;;;11.44;41.38;100346.75;105761;1255;74041;-64
2024/02/27 06:34:06;;;;;;;21.60;13.00;;;;;;;11.53;41.35;100353.29;105447;1254;59782;-67
2024/02/27 06:37:18;;;;;;;25.60;14.40;;;;;;;11.58;41.31;100354.20;105520;1254;61256;-66
2024/02/27 06:40:05;;;;;;;21.90;14.40;;;;;;;11.64;41.15;100352.04;105904;1254;73861;-67
2024/02/27 06:43:19;;;;;;;21.70;14.00;;;;;;;11.64;41.18;100352.38;104738;1264;69877;-68
2024/02/27 06:45:54;;;;;;;25.30;13.50;;;;;;;11.60;41.26;100355.14;105740;1256;72686;-65
2024/02/27 06:49:13;;;;;;;21.50;14.30;;;;;;;11.59;41.47;100355.20;106564;1254;63802;-66
2024/02/27 06:56:04;;;;;;;21.80;14.50;;;;;;;11.74;42.53;100358.20;103032;1286;613713;-66
2024/02/27 07:00:07;;;;;;;22.30;13.50;;;;;;;12.93;39.65;100352.01;104495;1266;60736;-64
2024/02/27 07:03:20;;;;;;;21.10;13.30;;;;;;;12.78;39.90;100355.09;104071;1269;59953;-66
2024/02/27 07:06:04;;;;;;;22.80;13.60;;;;;;;12.73;39.95;100358.98;104504;1272;72828;-67
2024/02/27 07:09:16;;;;;;;26.60;14.70;;;;;;;12.68;40.02;100360.77;103669;1266;1859380;-68
2024/02/27 07:12:45;;;;;;;20.90;14.10;;;;;;;12.63;40.39;100358.34;105877;1260;72463;-63
2024/02/27 07:16:41;;;;;;;24.90;14.00;;;;;;;12.72;40.48;100362.39;104363;1266;60266;-64
2024/02/27 07:20:04;;;;;;;23.90;13.50;;;;;;;12.96;40.09;100358.96;105658;1260;60574;-63
2024/02/27 07:22:53;;;;;;;20.60;13.70;;;;;;;13.07;39.96;100358.30;105080;1263;72280;-65
2024/02/27 07:25:28;;;;;;;18.70;13.40;;;;;;;13.14;39.79;100357.84;104394;1266;69267;-62
2024/02/27 07:28:41;;;;;;;23.60;13.50;;;;;;;13.14;40.02;100358.86;105317;1261;72302;-61
2024/02/27 07:32:10;;;;;;;20.30;12.70;;;;;;;13.27;39.87;100357.81;104550;1266;60873;-61
2024/02/27 07:34:53;;;;;;;18.50;12.40;;;;;;;13.31;39.94;100356.79;104063;1260;60303;-61
2024/02/27 07:38:12;;;;;;;18.80;12.80;;;;;;;13.32;40.01;100357.79;104025;1264;73720;-61
2024/02/27 07:41:01;;;;;;;24.10;12.60;;;;;;;13.46;39.87;100363.38;104388;1261;69660;-63
2024/02/27 07:44:20;;;;;;;27.60;11.80;;;;;;;13.52;39.73;100362.41;104158;1263;72696;-62
2024/02/27 07:47:45;;;;;;;17.30;11.30;;;;;;;13.56;39.85;100362.04;105565;1253;60733;-62
2024/02/27 07:51:41;;;;;;;20.30;11.40;;;;;;;13.62;39.70;100355.48;104601;1259;59920;-64
2024/02/27 07:55:23;;;;;;;15.60;9.60;;;;;;;13.83;39.56;100357.00;105433;1256;72678;-64
2024/02/27 07:58:24;;;;;;;17.40;10.40;;;;;;;13.93;39.25;100359.73;105436;1256;69997;-64
2024/02/27 08:01:45;;;;;;;21.60;10.70;;;;;;;14.02;39.04;100361.80;105571;1256;72451;-68
2024/02/27 08:05:22;;;;;;;20.60;10.60;;;;;;;14.16;39.11;100355.66;104599;1254;61280;-66
2024/02/27 08:08:35;;;;;;;22.30;10.20;;;;;;;14.26;38.96;100352.04;105084;1256;61472;-67
2024/02/27 08:11:26;;;;;;;16.40;11.30;;;;;;;14.20;39.16;100353.38;106244;1255;72879;-65
2024/02/27 08:14:37;;;;;;;16.80;9.30;;;;;;;14.29;39.14;100349.27;105623;1256;70821;-68
2024/02/27 08:18:02;;;;;;;18.50;10.20;;;;;;;14.57;38.75;100349.21;104930;1256;73142;-66
2024/02/27 08:21:40;;;;;;;;;;;;;;;14.43;38.39;100353.88;104715;1254;62988;-64
2024/02/27 08:24:59;;;;;;;15.70;8.50;;;;;;;14.59;38.30;100355.09;105483;1255;60327;-65
2024/02/27 08:28:20;;;;;;;15.70;7.50;;;;;;;14.72;38.08;100358.19;105433;1257;73337;-66
2024/02/27 08:31:16;;;;;;;13.20;8.40;;;;;;;14.71;38.10;100344.99;104928;1258;70720;-66
2024/02/27 08:33:56;;;;;;;12.60;8.10;;;;;;;14.88;37.64;100365.67;105009;1259;72487;-64
2024/02/27 08:37:09;;;;;;;17.50;8.20;;;;;;;15.03;37.63;100364.94;105517;1254;61151;-66
2024/02/27 08:40:28;;;;;;;13.60;7.70;;;;;;;15.18;37.58;100367.02;105829;1254;60529;-64
2024/02/27 08:42:55;;;;;;;12.50;6.90;;;;;;;15.33;37.25;100368.20;105552;1257;71689;-64
2024/02/27 08:46:07;;;;;;;15.90;8.40;;;;;;;15.41;37.03;100370.30;105418;1256;69569;-65
2024/02/27 08:49:26;;;;;;;14.50;6.50;;;;;;;15.41;36.53;100372.77;104775;1261;72784;-65
2024/02/27 08:52:15;;;;;;;14.60;6.60;;;;;;;15.55;36.14;100371.15;104797;1260;61076;-65
2024/02/27 08:54:45;;;;;;;11.50;6.20;;;;;;;15.56;36.41;100375.17;105362;1253;60019;-63
2024/02/27 08:57:25;;;;;;;13.80;6.80;;;;;;;15.64;36.36;100374.39;104387;1260;73383;-64
2024/02/27 09:00:25;;;;;;;14.10;7.80;;;;;;;15.83;36.06;100374.34;104653;1257;69430;-65
2024/02/27 09:03:05;;;;;;;13.30;7.30;;;;;;;15.96;35.62;100371.48;105069;1256;71641;-64
2024/02/27 09:06:26;;;;;;;11.90;6.50;;;;;;;16.03;35.70;100372.23;105757;1257;60140;-63
2024/02/27 09:09:51;;;;;;;13.90;6.60;;;;;;;16.23;35.41;100368.45;106151;1253;60634;-63
2024/02/27 09:13:01;;;;;;;10.40;6.30;;;;;;;16.43;34.83;100365.26;105010;1260;74516;-63
2024/02/27 09:15:35;;;;;;;10.70;6.30;;;;;;;16.48;34.64;100364.05;104355;1263;69343;-65
2024/02/27 09:18:03;;;;;;;11.10;6.40;;;;;;;16.49;34.76;100364.02;105886;1260;72858;-64
2024/02/27 09:21:14;;;;;;;12.10;6.80;;;;;;;16.57;34.62;100364.64;105581;1254;61178;-62
2024/02/27 09:24:04;;;;;;;10.60;5.90;;;;;;;16.65;34.36;100363.11;105359;1256;60071;-67
2024/02/27 09:27:01;;;;;;;9.40;6.00;;;;;;;16.66;34.23;100359.02;105096;1257;72486;-64
2024/02/27 09:30:23;;;;;;;11.40;5.40;;;;;;;16.84;33.72;100354.78;104932;1261;69466;-65
2024/02/27 09:33:36;;;;;;;13.70;4.90;;;;;;;17.05;33.33;100350.39;105277;1254;72786;-65
2024/02/27 09:36:10;;;;;;;11.20;5.40;;;;;;;17.10;33.19;100349.58;104978;1254;61047;-64
2024/02/27 09:39:21;;;;;;;10.40;5.90;;;;;;;17.17;32.80;100347.45;105751;1254;60233;-64
2024/02/27 09:42:51;;;;;;;13.00;5.60;;;;;;;17.11;32.74;100345.06;105511;1254;71843;-65
2024/02/27 09:45:25;;;;;;;8.10;5.20;;;;;;;17.21;32.41;100343.10;105071;1255;69350;-65
2024/02/27 09:48:43;;;;;;;11.90;6.60;;;;;;;17.31;32.60;100343.40;104509;1254;72603;-63
2024/02/27 09:51:13;;;;;;;13.60;6.60;;;;;;;17.39;32.28;100341.70;105726;1256;59646;-64
2024/02/27 09:53:57;;;;;;;13.30;5.50;;;;;;;17.28;32.60;100340.36;105334;1254;60414;-63
2024/02/27 09:56:43;;;;;;;11.30;6.00;;;;;;;17.35;32.78;100338.91;104406;1258;73831;-64
2024/02/27 10:00:00;;;;;;;12.40;5.00;;;;;;;17.81;31.88;100336.48;104472;1266;68559;-61
2024/02/27 10:02:41;;;;;;;17.40;5.10;;;;;;;17.87;31.33;100330.63;105041;1254;73124;-63
2024/02/27 10:05:59;;;;;;;11.30;5.00;;;;;;;18.04;31.08;100335.94;105803;1254;60313;-63
2024/02/27 10:09:55;;;;;;;9.30;4.70;;;;;;;18.18;31.31;100328.54;104735;1260;60101;-65
2024/02/27 10:13:45;;;;;;;10.80;4.60;;;;;;;18.29;31.30;100321.59;104919;1260;73218;-63
2024/02/27 10:17:05;;;;;;;10.30;5.30;;;;;;;18.35;31.27;100323.33;105616;1257;69428;-62
2024/02/27 10:19:53;;;;;;;11.20;5.20;;;;;;;18.45;30.74;100319.48;105654;1255;73401;-63
2024/02/27 10:23:05;;;;;;;9.60;5.80;;;;;;;18.48;30.58;100322.69;104797;1259;61479;-70
2024/02/27 10:26:24;;;;;;;9.90;4.90;;;;;;;18.58;30.79;100323.98;105995;1254;60113;-65
2024/02/27 10:29:44;;;;;;;16.20;5.90;;;;;;;18.71;30.12;100323.80;105631;1254;73122;-65
2024/02/27 10:33:02;;;;;;;14.10;4.90;;;;;;;18.90;30.47;100320.67;105148;1257;69721;-63
2024/02/27 10:35:37;;;;;;;9.50;4.90;;;;;;;19.03;30.13;100319.07;104599;1260;73169;-60
2024/02/27 10:38:15;;;;;;;10.50;4.50;;;;;;;19.10;29.91;100316.27;104915;1257;59621;-62
2024/02/27 10:41:28;;;;;;;15.10;5.20;;;;;;;19.15;30.03;100311.90;105063;1261;60234;-61
2024/02/27 10:44:09;;;;;;;12.50;4.60;;;;;;;19.27;29.95;100307.51;104629;1256;71850;-60
2024/02/27 10:47:25;;;;;;;11.60;4.50;;;;;;;19.27;29.29;100310.14;104734;1271;69144;-61
2024/02/27 10:50:00;;;;;;;17.70;5.10;;;;;;;19.38;29.12;100310.50;104415;1258;72748;-61
2024/02/27 10:53:18;;;;;;;9.30;4.20;;;;;;;19.43;29.29;100311.91;104884;1254;59753;-62
2024/02/27 10:56:46;;;;;;;7.70;4.20;;;;;;;19.53;28.89;100311.98;104758;1254;60243;-63
2024/02/27 11:00:04;;;;;;;8.80;3.80;;;;;;;19.55;28.16;100308.26;105325;1254;72732;-66
2024/02/27 11:03:16;;;;;;;12.20;4.20;;;;;;;19.55;28.11;100320.02;105288;1260;69339;-65
2024/02/27 11:06:59;;;;;;;10.40;3.70;;;;;;;19.60;28.39;100317.52;104866;1254;72674;-63
2024/02/27 11:10:57;;;;;;;15.30;9.60;;;;;;;19.58;28.24;100315.17;105511;1257;60435;-62
2024/02/27 11:14:10;;;;;;;19.40;12.80;;;;;;;19.62;28.26;100314.46;105418;1254;60292;-63
2024/02/27 11:16:50;;;;;;;215.50;110.20;;;;;;;19.72;28.29;100315.26;104273;1261;73111;-62
2024/02/27 11:20:02;;;;;;;123.90;67.00;;;;;;;19.82;28.35;100319.52;104829;1259;69621;-63
2024/02/27 11:23:27;;;;;;;49.40;26.60;;;;;;;19.96;27.89;100320.33;104915;1257;71582;-61
2024/02/27 11:26:25;;;;;;;21.70;11.70;;;;;;;20.01;28.23;100323.36;105269;1253;60318;-61
2024/02/27 11:28:52;;;;;;;10.40;6.10;;;;;;;20.02;27.94;100322.40;104237;1266;60279;-64
2024/02/27 11:31:47;;;;;;;11.90;5.20;;;;;;;20.12;28.18;100322.59;104789;1254;74632;-63
2024/02/27 11:35:01;;;;;;;15.70;4.90;;;;;;;20.11;28.01;100322.46;105746;1253;69753;-60
2024/02/27 11:38:26;;;;;;;13.00;5.50;;;;;;;19.99;27.99;100318.66;105587;1254;73263;-64
2024/02/27 11:41:04;;;;;;;7.80;4.80;;;;;;;20.08;27.97;100317.75;104322;1254;60328;-62
2024/02/27 11:44:23;;;;;;;12.50;6.40;;;;;;;20.16;27.75;100312.64;104840;1254;59778;-61
2024/02/27 11:47:32;;;;;;;14.90;5.00;;;;;;;19.98;28.02;100311.85;104787;1256;72602;-63
2024/02/27 11:50:44;;;;;;;28.10;9.20;;;;;;;19.93;27.93;100306.65;104952;1256;68399;-63
2024/02/27 11:53:32;;;;;;;17.30;7.00;;;;;;;19.97;27.85;100308.35;104661;1251;73565;-61
2024/02/27 11:56:44;;;;;;;18.70;6.40;;;;;;;19.85;27.76;100310.79;105723;1254;60260;-60
2024/02/27 11:59:29;;;;;;;11.40;5.90;;;;;;;19.73;27.84;100309.51;104451;1256;61145;-61
2024/02/27 12:02:47;;;;;;;11.20;5.40;;;;;;;19.57;28.26;100309.70;106160;1256;72834;-62
2024/02/27 12:05:28;;;;;;;13.50;4.90;;;;;;;20.01;27.97;100313.40;104939;1251;71049;-64
2024/02/27 12:08:06;;;;;;;9.70;4.70;;;;;;;19.98;27.71;100313.97;104896;1256;72793;-62
2024/02/27 12:11:02;;;;;;;13.20;4.90;;;;;;;20.22;27.60;100314.23;104968;1257;60494;-60
2024/02/27 12:14:20;;;;;;;15.00;5.60;;;;;;;20.19;27.59;100316.92;104707;1251;61160;-62
2024/02/27 12:18:10;;;;;;;13.70;6.00;;;;;;;20.07;27.62;100316.54;104609;1253;73809;-61
2024/02/27 12:21:21;;;;;;;10.90;5.10;;;;;;;19.75;27.81;100320.54;105536;1256;69406;-61
2024/02/27 12:24:12;;;;;;;11.00;5.30;;;;;;;19.61;28.04;100316.20;105173;1258;73164;-61
2024/02/27 12:27:23;;;;;;;13.70;5.70;;;;;;;19.60;28.24;100318.02;104545;1273;60145;-62
2024/02/27 12:29:51;;;;;;;13.80;5.90;;;;;;;19.59;28.29;100317.02;104591;1274;61411;-63
2024/02/27 12:32:18;;;;;;;18.30;6.40;;;;;;;19.54;28.31;100318.29;104431;1267;73897;-65
2024/02/27 12:35:29;;;;;;;8.90;6.30;;;;;;;19.52;28.50;100318.73;104841;1255;69407;-62
2024/02/27 12:38:48;;;;;;;15.50;5.90;;;;;;;19.47;28.33;100317.88;104570;1256;72382;-62
2024/02/27 12:42:46;;;;;;;11.50;6.20;;;;;;;19.42;28.43;100321.59;104372;1254;60556;-62
2024/02/27 12:45:51;;;;;;;12.40;5.80;;;;;;;19.45;28.62;100327.25;104639;1251;60556;-61
2024/02/27 12:48:31;;;;;;;12.80;6.00;;;;;;;19.40;28.60;100325.10;104709;1254;74114;-67
2024/02/27 12:51:00;;;;;;;12.70;6.30;;;;;;;19.40;28.64;100329.91;105050;1257;70447;-67
2024/02/27 12:54:06;;;;;;;17.50;6.90;;;;;;;19.44;28.68;100319.11;104940;1251;72028;-67
2024/02/27 12:56:40;;;;;;;15.60;5.70;;;;;;;19.53;28.78;100315.88;104602;1251;60453;-65
2024/02/27 12:59:43;;;;;;;13.80;6.50;;;;;;;19.55;28.80;100309.69;106076;1251;62516;-64
2024/02/27 13:02:25;;;;;;;13.80;6.10;;;;;;;19.55;28.83;100310.00;105237;1254;73829;-63
2024/02/27 13:05:44;;;;;;;11.10;6.00;;;;;;;19.57;28.82;100309.19;105834;1253;69669;-63
2024/02/27 13:08:18;;;;;;;18.00;6.10;;;;;;;19.52;28.96;100305.41;105582;1253;72226;-64
2024/02/27 13:10:45;;;;;;;11.20;6.20;;;;;;;19.55;29.14;100301.45;105175;1267;61485;-63
2024/02/27 13:13:34;;;;;;;14.20;6.10;;;;;;;19.56;29.11;100300.55;104748;1256;61109;-65
2024/02/27 13:16:54;;;;;;;15.00;6.10;;;;;;;19.55;29.06;100296.84;105395;1253;74346;-64
2024/02/27 13:20:09;;;;;;;14.60;6.40;;;;;;;19.57;29.04;100294.06;104859;1254;70250;-65
2024/02/27 13:22:49;;;;;;;15.00;6.60;;;;;;;19.60;29.09;100294.73;105163;1254;73229;-64
2024/02/27 13:26:05;;;;;;;13.50;7.10;;;;;;;19.67;29.21;100296.77;104731;1254;60559;-63
2024/02/27 13:28:40;;;;;;;13.00;6.50;;;;;;;19.69;29.14;100294.30;105085;1252;62187;-65
2024/02/27 13:31:59;;;;;;;8.90;6.20;;;;;;;19.71;29.28;100299.36;105343;1253;77787;-67
2024/02/27 13:35:24;;;;;;;18.40;7.20;;;;;;;19.74;29.25;100295.20;104717;1254;69977;-64
2024/02/27 13:39:20;;;;;;;15.80;6.90;;;;;;;19.84;29.18;100301.23;104484;1258;76238;-64
2024/02/27 13:42:32;;;;;;;15.70;7.00;;;;;;;20.01;28.99;100302.73;105755;1253;61318;-65
2024/02/27 13:45:16;;;;;;;20.60;6.50;;;;;;;19.97;29.08;100301.01;105468;1253;60449;-66
2024/02/27 13:48:28;;;;;;;17.30;6.30;;;;;;;19.99;29.16;100296.12;105154;1256;73656;-65
2024/02/27 13:51:18;;;;;;;12.80;6.60;;;;;;;19.97;29.22;100298.20;105009;1256;68784;-65
2024/02/27 13:53:48;;;;;;;20.90;6.10;;;;;;;20.00;29.20;100298.14;104528;1252;72725;-65
2024/02/27 13:56:47;;;;;;;12.50;6.40;;;;;;;20.03;29.11;100294.77;104537;1256;60434;-65
2024/02/27 13:59:27;;;;;;;12.50;5.90;;;;;;;19.96;29.02;100300.56;104860;1251;60902;-66
2024/02/27 14:02:39;;;;;;;13.60;6.10;;;;;;;19.84;29.16;100301.27;104860;1256;73895;-65
2024/02/27 14:05:25;;;;;;;17.10;6.50;;;;;;;19.86;29.15;100293.66;104925;1257;69085;-64
2024/02/27 14:08:04;;;;;;;16.80;6.20;;;;;;;19.71;29.11;100292.36;105781;1253;72400;-66
2024/02/27 14:11:03;;;;;;;14.20;5.80;;;;;;;19.71;29.04;100287.95;104367;1254;60453;-65
2024/02/27 14:13:44;;;;;;;17.70;5.60;;;;;;;19.61;29.04;100295.23;105269;1251;60489;-65
2024/02/27 14:17:03;;;;;;;15.80;6.70;;;;;;;19.45;29.32;100291.17;104535;1256;73713;-64
2024/02/27 14:19:46;;;;;;;14.70;6.00;;;;;;;19.25;29.48;100295.00;104791;1254;69477;-67